createdAt,value
2023-12-11T00:03:28.516Z,74.50
2023-12-11T00:08:32.403Z,74.40
2023-12-11T00:13:36.002Z,74.30
2023-12-11T00:18:41.024Z,74.10
2023-12-11T00:23:44.832Z,74.20
2023-12-11T00:28:48.658Z,74.10
2023-12-11T00:33:53.768Z,74.00
2023-12-11T00:38:57.366Z,74.00
2023-12-11T00:44:03.289Z,73.90
2023-12-11T00:49:08.210Z,73.70
2023-12-11T00:54:11.814Z,73.80
2023-12-11T00:59:15.420Z,73.70
2023-12-11T01:04:20.587Z,73.70
2023-12-11T01:09:24.134Z,73.90
2023-12-11T01:14:27.787Z,74.00
2023-12-11T01:19:32.824Z,73.90
2023-12-11T01:24:36.416Z,74.80
2023-12-11T01:29:39.930Z,74.00
2023-12-11T01:34:44.885Z,74.90
2023-12-11T01:39:48.478Z,74.30
2023-12-11T01:44:52.197Z,74.40
2023-12-11T01:49:57.265Z,74.50
2023-12-11T01:55:00.953Z,74.60
2023-12-11T02:00:06.823Z,74.50
2023-12-11T02:05:12.614Z,74.60
2023-12-11T02:10:17.016Z,74.60
2023-12-11T02:15:42.708Z,74.90
2023-12-11T02:20:48.045Z,75.40
2023-12-11T02:26:09.256Z,75.20
2023-12-11T02:31:13.649Z,75.10
2023-12-11T02:36:17.288Z,75.30
2023-12-11T02:41:22.204Z,75.70
2023-12-11T02:46:25.770Z,75.60
2023-12-11T02:51:29.317Z,75.20
2023-12-11T02:56:34.275Z,75.30
2023-12-11T03:01:40.855Z,75.40
2023-12-11T03:06:44.475Z,75.10
2023-12-11T03:11:49.383Z,75.20
2023-12-11T03:16:55.869Z,74.80
2023-12-11T03:21:59.376Z,74.80
2023-12-11T03:27:05.879Z,75.50
2023-12-11T03:32:09.655Z,75.30
2023-12-11T03:37:13.292Z,75.40
2023-12-11T03:42:18.193Z,75.50
2023-12-11T03:47:22.614Z,75.50
2023-12-11T03:52:26.162Z,75.50
2023-12-11T03:57:31.337Z,75.50
2023-12-11T04:02:35.167Z,75.00
2023-12-11T04:07:38.783Z,74.80
2023-12-11T04:12:45.072Z,74.80
2023-12-11T04:17:48.667Z,74.90
2023-12-11T04:22:52.225Z,74.90
2023-12-11T04:27:57.170Z,74.80
2023-12-11T04:33:00.799Z,74.70
2023-12-11T04:38:04.345Z,74.80
2023-12-11T04:43:09.383Z,74.80
2023-12-11T04:48:13.117Z,74.80
2023-12-11T04:53:16.767Z,74.80
2023-12-11T04:58:21.919Z,74.90
2023-12-11T05:03:25.426Z,75.10
2023-12-11T05:08:30.649Z,74.70
2023-12-11T05:13:35.729Z,75.00
2023-12-11T05:18:40.414Z,74.70
2023-12-11T05:23:44.132Z,74.60
2023-12-11T05:28:49.537Z,74.70
2023-12-11T05:33:53.242Z,74.90
2023-12-11T05:38:57.341Z,74.80
2023-12-11T05:44:02.323Z,74.80
2023-12-11T05:49:08.859Z,74.60
2023-12-11T05:54:12.424Z,74.90
2023-12-11T05:59:17.338Z,75.20
2023-12-11T06:04:20.929Z,74.80
2023-12-11T06:09:24.506Z,74.60
2023-12-11T06:14:29.376Z,74.20
2023-12-11T06:19:32.904Z,74.10
2023-12-11T06:24:38.601Z,73.90
2023-12-11T06:29:43.617Z,73.70
2023-12-11T06:34:47.263Z,73.70
2023-12-11T06:39:50.891Z,73.60
2023-12-11T06:44:55.819Z,73.70
2023-12-11T06:49:59.548Z,74.00
2023-12-11T06:55:03.822Z,74.10
2023-12-11T07:00:11.916Z,74.00
2023-12-11T07:05:15.663Z,74.00
2023-12-11T07:10:19.382Z,73.70
2023-12-11T07:15:24.269Z,74.00
2023-12-11T07:20:28.518Z,74.00
2023-12-11T07:25:33.017Z,74.10
2023-12-11T07:37:02.500Z,74.10
2023-12-11T07:42:07.834Z,73.00
2023-12-11T07:47:12.759Z,72.60
2023-12-11T07:52:16.526Z,72.30
2023-12-11T07:57:20.191Z,72.20
2023-12-11T08:02:25.252Z,72.10
2023-12-11T08:07:29.109Z,72.00
2023-12-11T08:12:33.092Z,72.10
2023-12-11T08:17:38.091Z,72.70
2023-12-11T08:22:41.733Z,72.30
2023-12-11T08:27:45.360Z,72.30
2023-12-11T08:32:50.338Z,72.30
2023-12-11T08:37:53.913Z,72.20
2023-12-11T08:42:57.497Z,72.20
2023-12-11T08:48:02.627Z,72.10
2023-12-11T08:53:06.707Z,72.00
2023-12-11T08:58:10.332Z,72.10
2023-12-11T09:03:15.271Z,72.30
2023-12-11T09:08:18.780Z,73.20
2023-12-11T09:13:22.969Z,73.30
2023-12-11T09:18:28.612Z,73.30
2023-12-11T09:23:32.234Z,73.50
2023-12-11T09:28:41.873Z,73.40
2023-12-11T09:33:53.459Z,74.30
2023-12-11T09:38:59.574Z,72.70
2023-12-11T09:44:03.475Z,70.30
2023-12-11T09:49:09.649Z,69.00
2023-12-11T09:54:14.352Z,68.00
2023-12-11T10:00:17.476Z,66.90
2023-12-11T10:05:28.268Z,67.90
2023-12-11T10:10:35.249Z,68.50
2023-12-11T10:15:39.453Z,68.70
2023-12-11T10:20:46.433Z,68.90
2023-12-11T10:25:53.023Z,69.20
2023-12-11T10:31:00.482Z,69.80
2023-12-11T10:36:17.106Z,70.10
2023-12-11T10:41:27.961Z,70.30
2023-12-11T10:46:32.391Z,70.30
2023-12-11T10:51:38.427Z,70.50
2023-12-11T10:56:45.630Z,70.60
2023-12-11T11:01:51.545Z,70.70
2023-12-11T11:07:02.677Z,70.90
2023-12-11T11:12:15.037Z,71.20
2023-12-11T11:17:18.768Z,71.40
2023-12-11T11:22:31.588Z,71.80
2023-12-11T11:27:43.787Z,72.70
2023-12-11T11:32:57.191Z,73.20
2023-12-11T11:38:02.008Z,73.80
2023-12-11T11:43:06.295Z,73.50
2023-12-11T11:48:09.792Z,73.60
2023-12-11T11:53:16.314Z,73.50
2023-12-11T11:58:19.859Z,73.40
2023-12-11T12:03:23.312Z,73.40
2023-12-11T12:08:28.372Z,73.60
2023-12-11T12:13:35.762Z,73.40
2023-12-11T12:18:51.202Z,73.30
2023-12-11T12:24:04.828Z,73.90
2023-12-11T12:29:10.996Z,71.80
2023-12-11T12:34:15.586Z,69.50
2023-12-11T12:39:22.256Z,68.00
2023-12-11T12:44:25.811Z,67.20
2023-12-11T12:49:29.260Z,66.50
2023-12-11T12:54:52.885Z,66.20
2023-12-11T12:59:56.347Z,65.50
2023-12-11T13:04:59.843Z,65.20
2023-12-11T13:10:12.007Z,64.70
2023-12-11T13:15:15.898Z,65.40
2023-12-11T13:20:21.380Z,66.60
2023-12-11T13:25:26.385Z,67.20
2023-12-11T13:30:29.867Z,68.00
2023-12-11T13:35:37.893Z,68.90
2023-12-11T13:40:42.956Z,70.30
2023-12-11T13:45:46.813Z,69.80
2023-12-11T13:50:50.325Z,70.00
2023-12-11T13:55:55.178Z,70.20
2023-12-11T14:00:58.701Z,70.30
2023-12-11T14:06:03.404Z,70.40
2023-12-11T14:11:09.618Z,70.50
2023-12-11T14:16:13.059Z,70.50
2023-12-11T14:21:18.522Z,70.70
2023-12-11T14:26:23.413Z,70.80
2023-12-11T14:31:26.851Z,70.80
2023-12-11T14:36:30.321Z,70.90
2023-12-11T14:41:35.094Z,70.90
2023-12-11T14:46:39.689Z,71.00
2023-12-11T14:51:43.200Z,71.00
2023-12-11T14:56:48.278Z,71.10
2023-12-11T15:01:51.986Z,71.00
2023-12-11T15:06:55.654Z,71.10
2023-12-11T15:12:00.538Z,71.10
2023-12-11T15:17:04.613Z,71.20
2023-12-11T15:22:08.022Z,71.20
2023-12-11T15:27:12.970Z,71.30
2023-12-11T15:32:17.120Z,71.30
2023-12-11T15:37:20.673Z,71.30
2023-12-11T15:42:25.481Z,71.40
2023-12-11T15:47:29.922Z,71.40
2023-12-11T15:52:52.283Z,71.50
2023-12-11T15:57:57.205Z,71.40
2023-12-11T16:03:00.728Z,71.60
2023-12-11T16:08:04.462Z,71.60
2023-12-11T16:13:09.355Z,71.60
2023-12-11T16:18:13.175Z,71.70
2023-12-11T16:23:16.850Z,71.60
2023-12-11T16:28:21.713Z,71.70
2023-12-11T16:33:25.498Z,71.60
2023-12-11T16:38:29.082Z,71.70
2023-12-11T16:43:33.918Z,71.80
2023-12-11T16:48:38.558Z,71.70
2023-12-11T16:53:43.097Z,71.70
2023-12-11T16:58:47.927Z,72.60
2023-12-11T17:03:51.817Z,71.80
2023-12-11T17:08:55.497Z,71.90
2023-12-11T17:14:00.271Z,71.90
2023-12-11T17:19:05.031Z,71.90
2023-12-11T17:24:11.634Z,71.90
2023-12-11T17:29:16.418Z,72.20
2023-12-11T17:34:19.937Z,72.20
2023-12-11T17:39:23.407Z,72.60
2023-12-11T17:44:28.206Z,72.90
2023-12-11T17:49:31.769Z,73.30
2023-12-11T17:54:35.255Z,73.50
2023-12-11T17:59:42.140Z,73.70
2023-12-11T18:04:45.840Z,73.80
2023-12-11T18:09:50.082Z,73.80
2023-12-11T18:14:55.046Z,74.70
2023-12-11T18:19:58.683Z,74.30
2023-12-11T18:25:02.547Z,73.90
2023-12-11T18:30:09.637Z,73.50
2023-12-11T18:35:13.451Z,73.20
2023-12-11T18:40:17.220Z,72.90
2023-12-11T18:45:23.641Z,72.90
2023-12-11T18:50:27.109Z,72.80
2023-12-11T18:55:32.659Z,72.80
2023-12-11T19:00:37.671Z,72.90
2023-12-11T19:05:41.924Z,72.80
2023-12-11T19:10:45.400Z,72.70
2023-12-11T19:15:50.216Z,72.70
2023-12-11T19:20:53.694Z,72.60
2023-12-11T19:25:57.493Z,72.60
2023-12-11T19:31:02.361Z,72.50
2023-12-11T19:36:06.915Z,72.40
2023-12-11T19:41:10.669Z,72.40
2023-12-11T19:46:15.509Z,72.30
2023-12-11T19:51:19.029Z,72.30
2023-12-11T19:56:23.002Z,72.40
2023-12-11T20:01:31.805Z,72.50
2023-12-11T20:06:35.334Z,72.50
2023-12-11T20:11:38.736Z,72.60
2023-12-11T20:16:44.297Z,72.60
2023-12-11T20:21:50.208Z,72.60
2023-12-11T20:26:54.566Z,72.70
2023-12-11T20:31:59.341Z,72.50
2023-12-11T20:37:02.819Z,72.30
2023-12-11T20:42:06.936Z,72.40
2023-12-11T20:47:11.716Z,72.20
2023-12-11T20:52:15.169Z,72.60
2023-12-11T20:57:18.576Z,72.70
2023-12-11T21:02:23.418Z,72.70
2023-12-11T21:07:26.882Z,72.90
2023-12-11T21:12:30.324Z,73.00
2023-12-11T21:17:35.414Z,73.40
2023-12-11T21:22:39.096Z,73.20
2023-12-11T21:27:42.482Z,73.60
2023-12-11T21:32:47.408Z,73.90
2023-12-11T21:37:50.871Z,74.00
2023-12-11T21:42:54.415Z,74.20
2023-12-11T21:47:59.685Z,74.30
2023-12-11T21:53:05.824Z,74.40
2023-12-11T21:58:09.290Z,74.50
2023-12-11T22:03:14.724Z,74.60
2023-12-11T22:08:18.293Z,74.80
2023-12-11T22:13:22.016Z,74.60
2023-12-11T22:18:27.112Z,74.70
2023-12-11T22:23:30.587Z,74.60
2023-12-11T22:28:34.156Z,74.50
2023-12-11T22:33:39.078Z,74.50
2023-12-11T22:38:42.489Z,74.50
2023-12-11T22:43:45.898Z,74.50
2023-12-11T22:48:50.776Z,74.50
2023-12-11T22:53:54.258Z,74.80
2023-12-11T22:58:57.667Z,74.60
2023-12-11T23:04:02.848Z,74.40
2023-12-11T23:09:06.616Z,74.40
2023-12-11T23:14:11.043Z,74.20
2023-12-11T23:19:15.956Z,73.90
2023-12-11T23:24:20.007Z,73.60
2023-12-11T23:29:23.480Z,73.50
2023-12-11T23:34:28.441Z,74.10
2023-12-11T23:39:32.911Z,73.50
2023-12-11T23:44:36.443Z,73.40
2023-12-11T23:49:41.423Z,73.30
2023-12-11T23:54:44.920Z,73.60
2023-12-11T23:59:48.295Z,73.40
